sensor_id;sensor_type;location;lat;lon;timestamp;P1;durP1;ratioP1;P2;durP2;ratioP2
60336;SDS011;46978;50.288;28.624;2023-01-04T00:00:44;7.91;;;4.01;;
60336;SDS011;46978;50.288;28.624;2023-01-04T00:01:46;7.01;;;3.65;;
60336;SDS011;46978;50.288;28.624;2023-01-04T00:02:47;7.36;;;4.18;;
60336;SDS011;46978;50.288;28.624;2023-01-04T00:03:49;6.02;;;4.01;;
60336;SDS011;46978;50.288;28.624;2023-01-04T00:04:51;5.93;;;3.41;;
60336;SDS011;46978;50.288;28.624;2023-01-04T00:05:53;6.96;;;3.86;;
60336;SDS011;46978;50.288;28.624;2023-01-04T00:06:54;5.31;;;3.69;;
60336;SDS011;46978;50.288;28.624;2023-01-04T00:07:57;6.49;;;3.87;;
60336;SDS011;46978;50.288;28.624;2023-01-04T00:08:59;6.94;;;3.96;;
60336;SDS011;46978;50.288;28.624;2023-01-04T00:10:00;5.91;;;3.85;;
60336;SDS011;46978;50.288;28.624;2023-01-04T00:11:03;5.28;;;3.61;;
60336;SDS011;46978;50.288;28.624;2023-01-04T00:12:07;6.38;;;4.06;;
60336;SDS011;46978;50.288;28.624;2023-01-04T00:13:09;5.94;;;3.74;;
60336;SDS011;46978;50.288;28.624;2023-01-04T00:14:11;6.06;;;3.95;;
60336;SDS011;46978;50.288;28.624;2023-01-04T00:16:34;6.58;;;3.73;;
60336;SDS011;46978;50.288;28.624;2023-01-04T00:17:36;6.66;;;3.74;;
60336;SDS011;46978;50.288;28.624;2023-01-04T00:18:38;7.21;;;3.65;;
60336;SDS011;46978;50.288;28.624;2023-01-04T00:19:39;5.97;;;3.51;;
60336;SDS011;46978;50.288;28.624;2023-01-04T00:20:42;7.82;;;4.07;;
60336;SDS011;46978;50.288;28.624;2023-01-04T00:21:44;7.35;;;4.29;;
60336;SDS011;46978;50.288;28.624;2023-01-04T00:22:45;6.71;;;3.64;;
60336;SDS011;46978;50.288;28.624;2023-01-04T00:23:48;5.15;;;3.63;;
60336;SDS011;46978;50.288;28.624;2023-01-04T00:24:51;5.49;;;3.62;;
60336;SDS011;46978;50.288;28.624;2023-01-04T00:25:53;6.10;;;3.79;;
60336;SDS011;46978;50.288;28.624;2023-01-04T00:26:55;5.72;;;3.65;;
60336;SDS011;46978;50.288;28.624;2023-01-04T00:27:57;6.21;;;4.24;;
60336;SDS011;46978;50.288;28.624;2023-01-04T00:28:59;5.41;;;3.83;;
60336;SDS011;46978;50.288;28.624;2023-01-04T00:30:04;6.03;;;3.91;;
60336;SDS011;46978;50.288;28.624;2023-01-04T00:31:07;5.81;;;4.01;;
60336;SDS011;46978;50.288;28.624;2023-01-04T00:32:11;7.28;;;4.16;;
60336;SDS011;46978;50.288;28.624;2023-01-04T00:33:12;5.81;;;4.01;;
60336;SDS011;46978;50.288;28.624;2023-01-04T00:34:14;6.45;;;3.87;;
60336;SDS011;46978;50.288;28.624;2023-01-04T00:35:17;6.54;;;4.07;;
60336;SDS011;46978;50.288;28.624;2023-01-04T00:36:19;6.51;;;4.01;;
60336;SDS011;46978;50.288;28.624;2023-01-04T00:37:21;6.47;;;4.39;;
60336;SDS011;46978;50.288;28.624;2023-01-04T00:38:23;6.94;;;4.08;;
60336;SDS011;46978;50.288;28.624;2023-01-04T00:39:24;6.40;;;4.46;;
60336;SDS011;46978;50.288;28.624;2023-01-04T00:40:26;8.02;;;4.36;;
60336;SDS011;46978;50.288;28.624;2023-01-04T00:41:28;7.07;;;4.37;;
60336;SDS011;46978;50.288;28.624;2023-01-04T00:42:29;7.94;;;4.63;;
60336;SDS011;46978;50.288;28.624;2023-01-04T00:43:31;6.89;;;4.38;;
60336;SDS011;46978;50.288;28.624;2023-01-04T00:44:33;9.09;;;4.39;;
60336;SDS011;46978;50.288;28.624;2023-01-04T00:45:35;7.38;;;4.09;;
60336;SDS011;46978;50.288;28.624;2023-01-04T00:46:38;7.07;;;4.11;;
60336;SDS011;46978;50.288;28.624;2023-01-04T00:47:40;7.78;;;4.44;;
60336;SDS011;46978;50.288;28.624;2023-01-04T00:48:42;8.08;;;4.79;;
60336;SDS011;46978;50.288;28.624;2023-01-04T00:49:44;8.48;;;5.46;;
60336;SDS011;46978;50.288;28.624;2023-01-04T00:50:46;9.25;;;5.28;;
60336;SDS011;46978;50.288;28.624;2023-01-04T00:51:49;7.48;;;5.11;;
60336;SDS011;46978;50.288;28.624;2023-01-04T00:52:51;11.43;;;5.82;;
60336;SDS011;46978;50.288;28.624;2023-01-04T00:53:52;10.43;;;5.79;;
60336;SDS011;46978;50.288;28.624;2023-01-04T00:54:54;11.09;;;5.76;;
60336;SDS011;46978;50.288;28.624;2023-01-04T00:55:58;8.53;;;5.33;;
60336;SDS011;46978;50.288;28.624;2023-01-04T00:57:01;9.34;;;5.58;;
60336;SDS011;46978;50.288;28.624;2023-01-04T00:58:03;8.37;;;5.37;;
60336;SDS011;46978;50.288;28.624;2023-01-04T00:59:05;12.95;;;5.64;;
60336;SDS011;46978;50.288;28.624;2023-01-04T01:00:08;11.03;;;6.40;;
60336;SDS011;46978;50.288;28.624;2023-01-04T01:01:12;10.10;;;6.14;;
60336;SDS011;46978;50.288;28.624;2023-01-04T01:02:15;10.83;;;6.36;;
60336;SDS011;46978;50.288;28.624;2023-01-04T01:03:17;12.15;;;6.71;;
60336;SDS011;46978;50.288;28.624;2023-01-04T01:04:20;14.41;;;6.85;;
60336;SDS011;46978;50.288;28.624;2023-01-04T01:05:23;14.59;;;7.91;;
60336;SDS011;46978;50.288;28.624;2023-01-04T01:06:25;12.97;;;6.93;;
60336;SDS011;46978;50.288;28.624;2023-01-04T01:07:28;12.44;;;6.72;;
60336;SDS011;46978;50.288;28.624;2023-01-04T01:08:31;13.66;;;7.23;;
60336;SDS011;46978;50.288;28.624;2023-01-04T01:09:33;13.25;;;7.34;;
60336;SDS011;46978;50.288;28.624;2023-01-04T01:10:35;14.65;;;7.75;;
60336;SDS011;46978;50.288;28.624;2023-01-04T01:11:37;12.59;;;6.52;;
60336;SDS011;46978;50.288;28.624;2023-01-04T01:12:39;12.69;;;6.79;;
60336;SDS011;46978;50.288;28.624;2023-01-04T01:13:41;9.29;;;6.01;;
60336;SDS011;46978;50.288;28.624;2023-01-04T01:14:43;9.17;;;6.15;;
60336;SDS011;46978;50.288;28.624;2023-01-04T01:15:45;9.94;;;6.25;;
60336;SDS011;46978;50.288;28.624;2023-01-04T01:16:47;7.84;;;5.49;;
60336;SDS011;46978;50.288;28.624;2023-01-04T01:17:49;7.77;;;5.23;;
60336;SDS011;46978;50.288;28.624;2023-01-04T01:18:50;8.31;;;5.90;;
60336;SDS011;46978;50.288;28.624;2023-01-04T01:19:53;10.11;;;5.93;;
60336;SDS011;46978;50.288;28.624;2023-01-04T01:20:55;8.76;;;5.34;;
60336;SDS011;46978;50.288;28.624;2023-01-04T01:21:56;10.20;;;6.02;;
60336;SDS011;46978;50.288;28.624;2023-01-04T01:22:58;11.56;;;5.93;;
60336;SDS011;46978;50.288;28.624;2023-01-04T01:24:00;10.19;;;5.94;;
60336;SDS011;46978;50.288;28.624;2023-01-04T01:25:02;8.80;;;5.66;;
60336;SDS011;46978;50.288;28.624;2023-01-04T01:26:05;8.97;;;6.06;;
60336;SDS011;46978;50.288;28.624;2023-01-04T01:27:09;11.21;;;5.73;;
60336;SDS011;46978;50.288;28.624;2023-01-04T01:28:11;8.33;;;5.11;;
60336;SDS011;46978;50.288;28.624;2023-01-04T01:29:12;9.23;;;5.34;;
60336;SDS011;46978;50.288;28.624;2023-01-04T01:30:15;7.91;;;5.26;;
60336;SDS011;46978;50.288;28.624;2023-01-04T01:32:21;9.86;;;5.33;;
60336;SDS011;46978;50.288;28.624;2023-01-04T01:33:23;9.94;;;5.32;;
60336;SDS011;46978;50.288;28.624;2023-01-04T01:34:25;11.12;;;5.92;;
60336;SDS011;46978;50.288;28.624;2023-01-04T01:35:26;8.78;;;5.16;;
60336;SDS011;46978;50.288;28.624;2023-01-04T01:36:28;12.83;;;5.96;;
60336;SDS011;46978;50.288;28.624;2023-01-04T01:37:29;10.24;;;5.19;;
60336;SDS011;46978;50.288;28.624;2023-01-04T01:38:31;8.75;;;4.64;;
60336;SDS011;46978;50.288;28.624;2023-01-04T01:39:33;7.61;;;4.79;;
60336;SDS011;46978;50.288;28.624;2023-01-04T01:40:39;8.55;;;5.25;;
60336;SDS011;46978;50.288;28.624;2023-01-04T01:41:42;8.06;;;4.91;;
60336;SDS011;46978;50.288;28.624;2023-01-04T01:42:44;7.65;;;4.97;;
60336;SDS011;46978;50.288;28.624;2023-01-04T01:43:47;8.27;;;5.04;;
60336;SDS011;46978;50.288;28.624;2023-01-04T01:44:53;8.28;;;4.53;;
60336;SDS011;46978;50.288;28.624;2023-01-04T01:45:57;7.21;;;4.84;;
60336;SDS011;46978;50.288;28.624;2023-01-04T01:46:59;7.01;;;4.33;;
60336;SDS011;46978;50.288;28.624;2023-01-04T01:48:06;8.52;;;5.03;;
60336;SDS011;46978;50.288;28.624;2023-01-04T01:50:38;7.73;;;4.48;;
60336;SDS011;46978;50.288;28.624;2023-01-04T01:51:39;7.59;;;4.40;;
60336;SDS011;46978;50.288;28.624;2023-01-04T01:52:42;7.86;;;4.97;;
60336;SDS011;46978;50.288;28.624;2023-01-04T01:53:45;9.12;;;5.20;;
60336;SDS011;46978;50.288;28.624;2023-01-04T01:54:57;8.48;;;4.92;;
60336;SDS011;46978;50.288;28.624;2023-01-04T01:55:57;8.82;;;5.28;;
60336;SDS011;46978;50.288;28.624;2023-01-04T01:57:02;9.81;;;5.40;;
60336;SDS011;46978;50.288;28.624;2023-01-04T01:58:07;7.71;;;4.84;;
60336;SDS011;46978;50.288;28.624;2023-01-04T01:59:11;9.64;;;4.96;;
60336;SDS011;46978;50.288;28.624;2023-01-04T02:00:16;9.13;;;5.26;;
60336;SDS011;46978;50.288;28.624;2023-01-04T02:01:18;7.85;;;4.87;;
60336;SDS011;46978;50.288;28.624;2023-01-04T02:02:20;9.15;;;5.13;;
60336;SDS011;46978;50.288;28.624;2023-01-04T02:03:23;8.77;;;5.46;;
60336;SDS011;46978;50.288;28.624;2023-01-04T02:04:34;9.44;;;5.12;;
60336;SDS011;46978;50.288;28.624;2023-01-04T02:05:39;8.37;;;4.90;;
60336;SDS011;46978;50.288;28.624;2023-01-04T02:06:45;7.66;;;5.24;;
60336;SDS011;46978;50.288;28.624;2023-01-04T02:07:49;8.78;;;5.15;;
60336;SDS011;46978;50.288;28.624;2023-01-04T02:08:52;8.12;;;4.97;;
60336;SDS011;46978;50.288;28.624;2023-01-04T02:09:54;8.07;;;5.03;;
60336;SDS011;46978;50.288;28.624;2023-01-04T02:10:57;9.74;;;4.94;;
60336;SDS011;46978;50.288;28.624;2023-01-04T02:11:59;8.18;;;4.63;;
60336;SDS011;46978;50.288;28.624;2023-01-04T02:13:02;9.38;;;5.16;;
60336;SDS011;46978;50.288;28.624;2023-01-04T02:14:12;8.69;;;4.53;;
60336;SDS011;46978;50.288;28.624;2023-01-04T02:15:16;8.08;;;4.46;;
60336;SDS011;46978;50.288;28.624;2023-01-04T02:16:30;7.25;;;4.77;;
60336;SDS011;46978;50.288;28.624;2023-01-04T02:17:52;8.73;;;4.77;;
60336;SDS011;46978;50.288;28.624;2023-01-04T02:18:57;7.94;;;4.76;;
60336;SDS011;46978;50.288;28.624;2023-01-04T02:21:27;8.16;;;4.85;;
60336;SDS011;46978;50.288;28.624;2023-01-04T02:24:16;8.73;;;4.93;;
60336;SDS011;46978;50.288;28.624;2023-01-04T02:26:52;8.05;;;5.05;;
60336;SDS011;46978;50.288;28.624;2023-01-04T02:28:07;11.09;;;5.80;;
60336;SDS011;46978;50.288;28.624;2023-01-04T02:29:42;9.37;;;5.48;;
60336;SDS011;46978;50.288;28.624;2023-01-04T02:32:21;9.28;;;5.27;;
60336;SDS011;46978;50.288;28.624;2023-01-04T02:39:01;9.67;;;5.67;;
60336;SDS011;46978;50.288;28.624;2023-01-04T02:41:58;9.26;;;4.93;;
60336;SDS011;46978;50.288;28.624;2023-01-04T02:44:47;8.92;;;5.13;;
60336;SDS011;46978;50.288;28.624;2023-01-04T02:45:55;7.86;;;4.80;;
60336;SDS011;46978;50.288;28.624;2023-01-04T02:47:08;7.42;;;4.25;;
60336;SDS011;46978;50.288;28.624;2023-01-04T02:48:12;9.09;;;4.95;;
60336;SDS011;46978;50.288;28.624;2023-01-04T02:49:14;8.34;;;4.89;;
60336;SDS011;46978;50.288;28.624;2023-01-04T02:50:26;8.42;;;4.74;;
60336;SDS011;46978;50.288;28.624;2023-01-04T02:51:28;6.57;;;4.23;;
60336;SDS011;46978;50.288;28.624;2023-01-04T02:52:32;7.84;;;4.26;;
60336;SDS011;46978;50.288;28.624;2023-01-04T02:53:35;6.65;;;4.15;;
60336;SDS011;46978;50.288;28.624;2023-01-04T02:54:39;6.68;;;3.82;;
60336;SDS011;46978;50.288;28.624;2023-01-04T03:02:10;6.89;;;3.58;;
60336;SDS011;46978;50.288;28.624;2023-01-04T03:03:17;7.27;;;4.16;;
60336;SDS011;46978;50.288;28.624;2023-01-04T03:05:48;6.16;;;3.72;;
60336;SDS011;46978;50.288;28.624;2023-01-04T03:07:11;6.00;;;3.53;;
60336;SDS011;46978;50.288;28.624;2023-01-04T03:09:29;6.39;;;3.74;;
60336;SDS011;46978;50.288;28.624;2023-01-04T03:10:35;5.83;;;3.74;;
60336;SDS011;46978;50.288;28.624;2023-01-04T03:11:54;6.50;;;3.58;;
60336;SDS011;46978;50.288;28.624;2023-01-04T03:13:00;5.43;;;3.38;;
60336;SDS011;46978;50.288;28.624;2023-01-04T03:14:13;8.42;;;3.67;;
60336;SDS011;46978;50.288;28.624;2023-01-04T03:15:17;6.41;;;3.77;;
60336;SDS011;46978;50.288;28.624;2023-01-04T03:16:24;6.23;;;3.46;;
60336;SDS011;46978;50.288;28.624;2023-01-04T03:17:26;5.63;;;3.73;;
60336;SDS011;46978;50.288;28.624;2023-01-04T03:18:32;6.67;;;3.42;;
60336;SDS011;46978;50.288;28.624;2023-01-04T03:19:36;7.07;;;3.88;;
60336;SDS011;46978;50.288;28.624;2023-01-04T03:20:41;8.64;;;3.72;;
60336;SDS011;46978;50.288;28.624;2023-01-04T03:21:44;4.91;;;3.66;;
60336;SDS011;46978;50.288;28.624;2023-01-04T03:22:51;5.23;;;3.40;;
60336;SDS011;46978;50.288;28.624;2023-01-04T03:23:58;7.29;;;3.85;;
60336;SDS011;46978;50.288;28.624;2023-01-04T03:25:00;7.14;;;3.91;;
60336;SDS011;46978;50.288;28.624;2023-01-04T03:26:06;6.70;;;3.54;;
60336;SDS011;46978;50.288;28.624;2023-01-04T03:27:10;5.86;;;3.61;;
60336;SDS011;46978;50.288;28.624;2023-01-04T03:28:13;6.85;;;3.81;;
60336;SDS011;46978;50.288;28.624;2023-01-04T03:29:21;5.76;;;3.49;;
60336;SDS011;46978;50.288;28.624;2023-01-04T03:30:28;7.31;;;3.74;;
60336;SDS011;46978;50.288;28.624;2023-01-04T03:32:56;6.55;;;3.68;;
60336;SDS011;46978;50.288;28.624;2023-01-04T03:33:56;5.79;;;3.54;;
60336;SDS011;46978;50.288;28.624;2023-01-04T03:34:58;5.25;;;3.29;;
60336;SDS011;46978;50.288;28.624;2023-01-04T03:37:30;6.41;;;3.60;;
60336;SDS011;46978;50.288;28.624;2023-01-04T03:38:37;7.03;;;3.56;;
60336;SDS011;46978;50.288;28.624;2023-01-04T03:42:14;4.59;;;2.83;;
60336;SDS011;46978;50.288;28.624;2023-01-04T03:43:29;7.26;;;3.47;;
60336;SDS011;46978;50.288;28.624;2023-01-04T03:46:04;6.36;;;3.29;;
60336;SDS011;46978;50.288;28.624;2023-01-04T03:47:18;4.94;;;3.25;;
60336;SDS011;46978;50.288;28.624;2023-01-04T03:48:30;7.04;;;3.75;;
60336;SDS011;46978;50.288;28.624;2023-01-04T03:49:51;5.34;;;3.46;;
60336;SDS011;46978;50.288;28.624;2023-01-04T03:52:18;6.96;;;3.64;;
60336;SDS011;46978;50.288;28.624;2023-01-04T03:53:21;6.44;;;3.54;;
60336;SDS011;46978;50.288;28.624;2023-01-04T03:54:26;8.46;;;4.05;;
60336;SDS011;46978;50.288;28.624;2023-01-04T03:55:38;6.13;;;3.77;;
60336;SDS011;46978;50.288;28.624;2023-01-04T03:56:43;6.57;;;3.86;;
60336;SDS011;46978;50.288;28.624;2023-01-04T03:57:46;6.06;;;3.82;;
60336;SDS011;46978;50.288;28.624;2023-01-04T03:58:49;6.55;;;3.77;;
60336;SDS011;46978;50.288;28.624;2023-01-04T03:59:52;7.36;;;4.00;;
60336;SDS011;46978;50.288;28.624;2023-01-04T04:01:00;9.34;;;4.48;;
60336;SDS011;46978;50.288;28.624;2023-01-04T04:02:03;5.84;;;3.56;;
60336;SDS011;46978;50.288;28.624;2023-01-04T04:03:05;6.12;;;3.62;;
60336;SDS011;46978;50.288;28.624;2023-01-04T04:04:08;7.08;;;4.11;;
60336;SDS011;46978;50.288;28.624;2023-01-04T04:05:14;7.09;;;3.86;;
60336;SDS011;46978;50.288;28.624;2023-01-04T04:06:16;5.89;;;3.79;;
60336;SDS011;46978;50.288;28.624;2023-01-04T04:07:18;9.84;;;3.83;;
60336;SDS011;46978;50.288;28.624;2023-01-04T04:08:20;6.06;;;3.77;;
60336;SDS011;46978;50.288;28.624;2023-01-04T04:09:22;6.15;;;3.61;;
60336;SDS011;46978;50.288;28.624;2023-01-04T04:10:25;5.84;;;3.69;;
60336;SDS011;46978;50.288;28.624;2023-01-04T04:11:27;6.43;;;3.53;;
60336;SDS011;46978;50.288;28.624;2023-01-04T04:12:29;7.09;;;3.59;;
60336;SDS011;46978;50.288;28.624;2023-01-04T04:13:30;6.61;;;3.56;;
60336;SDS011;46978;50.288;28.624;2023-01-04T04:14:32;7.30;;;4.06;;
60336;SDS011;46978;50.288;28.624;2023-01-04T04:15:33;6.39;;;4.04;;
60336;SDS011;46978;50.288;28.624;2023-01-04T04:16:35;8.20;;;4.16;;
60336;SDS011;46978;50.288;28.624;2023-01-04T04:17:37;6.44;;;3.55;;
60336;SDS011;46978;50.288;28.624;2023-01-04T04:18:39;5.89;;;3.85;;
60336;SDS011;46978;50.288;28.624;2023-01-04T04:19:41;6.97;;;3.86;;
60336;SDS011;46978;50.288;28.624;2023-01-04T04:20:42;6.41;;;4.01;;
60336;SDS011;46978;50.288;28.624;2023-01-04T04:21:44;8.57;;;4.90;;
60336;SDS011;46978;50.288;28.624;2023-01-04T04:22:46;8.36;;;4.79;;
60336;SDS011;46978;50.288;28.624;2023-01-04T04:23:48;8.61;;;4.51;;
60336;SDS011;46978;50.288;28.624;2023-01-04T04:24:49;8.65;;;4.96;;
60336;SDS011;46978;50.288;28.624;2023-01-04T04:25:51;6.89;;;4.45;;
60336;SDS011;46978;50.288;28.624;2023-01-04T04:26:53;8.06;;;4.37;;
60336;SDS011;46978;50.288;28.624;2023-01-04T04:27:56;10.04;;;4.69;;
60336;SDS011;46978;50.288;28.624;2023-01-04T04:28:57;6.71;;;4.07;;
60336;SDS011;46978;50.288;28.624;2023-01-04T04:29:59;7.39;;;4.91;;
60336;SDS011;46978;50.288;28.624;2023-01-04T04:31:01;7.46;;;4.64;;
60336;SDS011;46978;50.288;28.624;2023-01-04T04:32:03;9.63;;;5.01;;
60336;SDS011;46978;50.288;28.624;2023-01-04T04:33:05;6.43;;;4.05;;
60336;SDS011;46978;50.288;28.624;2023-01-04T04:34:08;8.35;;;4.28;;
60336;SDS011;46978;50.288;28.624;2023-01-04T04:35:10;8.61;;;5.04;;
60336;SDS011;46978;50.288;28.624;2023-01-04T04:37:34;11.57;;;6.12;;
60336;SDS011;46978;50.288;28.624;2023-01-04T04:38:36;9.76;;;5.55;;
60336;SDS011;46978;50.288;28.624;2023-01-04T04:39:37;7.99;;;5.51;;
60336;SDS011;46978;50.288;28.624;2023-01-04T04:40:39;7.99;;;4.89;;
60336;SDS011;46978;50.288;28.624;2023-01-04T04:41:41;8.93;;;5.08;;
60336;SDS011;46978;50.288;28.624;2023-01-04T04:42:44;9.94;;;4.95;;
60336;SDS011;46978;50.288;28.624;2023-01-04T04:43:46;8.77;;;5.13;;
60336;SDS011;46978;50.288;28.624;2023-01-04T04:44:47;13.59;;;6.56;;
60336;SDS011;46978;50.288;28.624;2023-01-04T04:45:49;10.40;;;5.62;;
60336;SDS011;46978;50.288;28.624;2023-01-04T04:46:51;12.44;;;5.86;;
60336;SDS011;46978;50.288;28.624;2023-01-04T04:47:53;9.37;;;4.84;;
60336;SDS011;46978;50.288;28.624;2023-01-04T04:48:54;9.02;;;5.07;;
60336;SDS011;46978;50.288;28.624;2023-01-04T04:49:57;8.05;;;4.43;;
60336;SDS011;46978;50.288;28.624;2023-01-04T04:50:59;10.43;;;5.61;;
60336;SDS011;46978;50.288;28.624;2023-01-04T04:52:01;9.41;;;4.96;;
60336;SDS011;46978;50.288;28.624;2023-01-04T04:53:02;10.46;;;5.26;;
60336;SDS011;46978;50.288;28.624;2023-01-04T04:54:04;9.01;;;5.10;;
60336;SDS011;46978;50.288;28.624;2023-01-04T04:55:07;8.66;;;4.42;;
60336;SDS011;46978;50.288;28.624;2023-01-04T04:56:11;10.84;;;4.91;;
60336;SDS011;46978;50.288;28.624;2023-01-04T04:57:13;10.31;;;4.83;;
60336;SDS011;46978;50.288;28.624;2023-01-04T04:58:14;8.44;;;4.56;;
60336;SDS011;46978;50.288;28.624;2023-01-04T04:59:16;8.72;;;4.26;;
60336;SDS011;46978;50.288;28.624;2023-01-04T05:00:18;7.21;;;3.85;;
60336;SDS011;46978;50.288;28.624;2023-01-04T05:01:20;7.89;;;4.15;;
60336;SDS011;46978;50.288;28.624;2023-01-04T05:02:22;7.99;;;4.47;;
60336;SDS011;46978;50.288;28.624;2023-01-04T05:03:23;7.52;;;3.71;;
60336;SDS011;46978;50.288;28.624;2023-01-04T05:04:25;5.96;;;4.09;;
60336;SDS011;46978;50.288;28.624;2023-01-04T05:05:27;7.61;;;4.15;;
60336;SDS011;46978;50.288;28.624;2023-01-04T05:06:30;7.84;;;4.24;;
60336;SDS011;46978;50.288;28.624;2023-01-04T05:07:32;9.00;;;4.39;;
60336;SDS011;46978;50.288;28.624;2023-01-04T05:08:34;8.43;;;4.13;;
60336;SDS011;46978;50.288;28.624;2023-01-04T05:09:36;8.29;;;4.19;;
60336;SDS011;46978;50.288;28.624;2023-01-04T05:10:38;8.86;;;4.28;;
60336;SDS011;46978;50.288;28.624;2023-01-04T05:11:40;6.40;;;4.00;;
60336;SDS011;46978;50.288;28.624;2023-01-04T05:12:42;7.61;;;4.04;;
60336;SDS011;46978;50.288;28.624;2023-01-04T05:13:44;6.66;;;4.13;;
60336;SDS011;46978;50.288;28.624;2023-01-04T05:14:46;6.41;;;4.16;;
60336;SDS011;46978;50.288;28.624;2023-01-04T05:15:48;9.19;;;4.39;;
60336;SDS011;46978;50.288;28.624;2023-01-04T05:16:51;7.17;;;4.21;;
60336;SDS011;46978;50.288;28.624;2023-01-04T05:17:53;7.12;;;4.25;;
60336;SDS011;46978;50.288;28.624;2023-01-04T05:18:55;7.41;;;3.66;;
60336;SDS011;46978;50.288;28.624;2023-01-04T05:19:56;10.75;;;4.26;;
60336;SDS011;46978;50.288;28.624;2023-01-04T05:20:58;6.15;;;3.81;;
60336;SDS011;46978;50.288;28.624;2023-01-04T05:22:00;7.77;;;3.78;;
60336;SDS011;46978;50.288;28.624;2023-01-04T05:23:02;5.61;;;3.20;;
60336;SDS011;46978;50.288;28.624;2023-01-04T05:25:10;6.70;;;3.64;;
60336;SDS011;46978;50.288;28.624;2023-01-04T05:26:12;6.71;;;3.77;;
60336;SDS011;46978;50.288;28.624;2023-01-04T05:27:14;5.93;;;3.41;;
60336;SDS011;46978;50.288;28.624;2023-01-04T05:28:15;6.07;;;3.15;;
60336;SDS011;46978;50.288;28.624;2023-01-04T05:29:17;7.06;;;3.19;;
60336;SDS011;46978;50.288;28.624;2023-01-04T05:30:20;6.89;;;3.19;;
60336;SDS011;46978;50.288;28.624;2023-01-04T05:31:21;6.81;;;3.34;;
60336;SDS011;46978;50.288;28.624;2023-01-04T05:32:23;5.93;;;3.94;;
60336;SDS011;46978;50.288;28.624;2023-01-04T05:33:29;7.00;;;3.39;;
60336;SDS011;46978;50.288;28.624;2023-01-04T05:34:32;5.61;;;3.29;;
60336;SDS011;46978;50.288;28.624;2023-01-04T05:35:33;5.19;;;3.25;;
60336;SDS011;46978;50.288;28.624;2023-01-04T05:36:36;6.17;;;3.30;;
60336;SDS011;46978;50.288;28.624;2023-01-04T05:37:38;6.39;;;3.64;;
60336;SDS011;46978;50.288;28.624;2023-01-04T05:38:39;5.91;;;3.66;;
60336;SDS011;46978;50.288;28.624;2023-01-04T05:39:41;7.21;;;3.54;;
60336;SDS011;46978;50.288;28.624;2023-01-04T05:40:43;5.87;;;3.52;;
60336;SDS011;46978;50.288;28.624;2023-01-04T05:41:45;7.62;;;3.73;;
60336;SDS011;46978;50.288;28.624;2023-01-04T05:42:47;6.29;;;3.67;;
60336;SDS011;46978;50.288;28.624;2023-01-04T05:43:49;6.85;;;3.71;;
60336;SDS011;46978;50.288;28.624;2023-01-04T05:44:51;5.94;;;3.56;;
60336;SDS011;46978;50.288;28.624;2023-01-04T05:45:53;8.28;;;3.76;;
60336;SDS011;46978;50.288;28.624;2023-01-04T05:46:57;7.47;;;3.61;;
60336;SDS011;46978;50.288;28.624;2023-01-04T05:47:58;7.40;;;3.79;;
60336;SDS011;46978;50.288;28.624;2023-01-04T05:49:00;7.89;;;3.46;;
60336;SDS011;46978;50.288;28.624;2023-01-04T05:50:02;6.96;;;3.76;;
60336;SDS011;46978;50.288;28.624;2023-01-04T05:51:04;6.93;;;3.44;;
60336;SDS011;46978;50.288;28.624;2023-01-04T05:52:06;6.23;;;3.79;;
60336;SDS011;46978;50.288;28.624;2023-01-04T05:53:08;7.30;;;3.81;;
60336;SDS011;46978;50.288;28.624;2023-01-04T05:54:09;7.60;;;4.10;;
60336;SDS011;46978;50.288;28.624;2023-01-04T05:55:11;6.32;;;3.69;;
60336;SDS011;46978;50.288;28.624;2023-01-04T05:56:14;8.28;;;3.81;;
60336;SDS011;46978;50.288;28.624;2023-01-04T05:57:15;5.26;;;3.41;;
60336;SDS011;46978;50.288;28.624;2023-01-04T05:58:17;7.89;;;3.92;;
60336;SDS011;46978;50.288;28.624;2023-01-04T05:59:19;7.34;;;3.86;;
60336;SDS011;46978;50.288;28.624;2023-01-04T06:00:21;8.85;;;4.04;;
60336;SDS011;46978;50.288;28.624;2023-01-04T06:01:23;6.45;;;3.95;;
60336;SDS011;46978;50.288;28.624;2023-01-04T06:02:26;7.05;;;4.11;;
60336;SDS011;46978;50.288;28.624;2023-01-04T06:03:30;6.51;;;3.77;;
60336;SDS011;46978;50.288;28.624;2023-01-04T06:04:31;7.90;;;3.84;;
60336;SDS011;46978;50.288;28.624;2023-01-04T06:05:33;6.84;;;3.76;;
60336;SDS011;46978;50.288;28.624;2023-01-04T06:06:35;6.25;;;3.71;;
60336;SDS011;46978;50.288;28.624;2023-01-04T06:08:41;9.09;;;4.17;;
60336;SDS011;46978;50.288;28.624;2023-01-04T06:09:43;8.24;;;4.13;;
60336;SDS011;46978;50.288;28.624;2023-01-04T06:10:50;8.87;;;4.62;;
60336;SDS011;46978;50.288;28.624;2023-01-04T06:11:55;7.41;;;4.06;;
60336;SDS011;46978;50.288;28.624;2023-01-04T06:12:57;10.41;;;4.21;;
60336;SDS011;46978;50.288;28.624;2023-01-04T06:13:58;8.41;;;4.87;;
60336;SDS011;46978;50.288;28.624;2023-01-04T06:15:00;13.36;;;6.26;;
60336;SDS011;46978;50.288;28.624;2023-01-04T06:16:02;15.28;;;8.25;;
60336;SDS011;46978;50.288;28.624;2023-01-04T06:17:08;10.54;;;5.56;;
60336;SDS011;46978;50.288;28.624;2023-01-04T06:18:09;8.82;;;4.61;;
60336;SDS011;46978;50.288;28.624;2023-01-04T06:19:11;8.41;;;4.34;;
60336;SDS011;46978;50.288;28.624;2023-01-04T06:20:15;7.33;;;4.79;;
60336;SDS011;46978;50.288;28.624;2023-01-04T06:21:16;7.53;;;4.33;;
60336;SDS011;46978;50.288;28.624;2023-01-04T06:23:40;6.94;;;4.03;;
60336;SDS011;46978;50.288;28.624;2023-01-04T06:24:41;7.53;;;4.59;;
60336;SDS011;46978;50.288;28.624;2023-01-04T06:25:43;13.24;;;4.49;;
60336;SDS011;46978;50.288;28.624;2023-01-04T06:26:45;7.83;;;4.61;;
60336;SDS011;46978;50.288;28.624;2023-01-04T06:27:47;6.91;;;4.46;;
60336;SDS011;46978;50.288;28.624;2023-01-04T06:28:49;7.54;;;4.25;;
60336;SDS011;46978;50.288;28.624;2023-01-04T06:29:50;7.29;;;4.14;;
60336;SDS011;46978;50.288;28.624;2023-01-04T06:30:52;6.45;;;4.11;;
60336;SDS011;46978;50.288;28.624;2023-01-04T06:31:54;8.21;;;4.24;;
60336;SDS011;46978;50.288;28.624;2023-01-04T06:32:56;6.37;;;3.95;;
60336;SDS011;46978;50.288;28.624;2023-01-04T06:33:58;10.44;;;4.71;;
60336;SDS011;46978;50.288;28.624;2023-01-04T06:35:00;8.50;;;4.63;;
60336;SDS011;46978;50.288;28.624;2023-01-04T06:36:02;9.63;;;4.69;;
60336;SDS011;46978;50.288;28.624;2023-01-04T06:37:05;7.83;;;4.58;;
60336;SDS011;46978;50.288;28.624;2023-01-04T06:38:07;7.69;;;4.50;;
60336;SDS011;46978;50.288;28.624;2023-01-04T06:39:08;8.29;;;4.78;;
60336;SDS011;46978;50.288;28.624;2023-01-04T06:40:11;8.51;;;4.75;;
60336;SDS011;46978;50.288;28.624;2023-01-04T06:41:13;9.31;;;5.01;;
60336;SDS011;46978;50.288;28.624;2023-01-04T06:42:15;8.30;;;4.69;;
60336;SDS011;46978;50.288;28.624;2023-01-04T06:43:17;7.06;;;4.41;;
60336;SDS011;46978;50.288;28.624;2023-01-04T06:44:19;7.61;;;4.60;;
60336;SDS011;46978;50.288;28.624;2023-01-04T06:45:21;7.79;;;4.60;;
60336;SDS011;46978;50.288;28.624;2023-01-04T06:46:23;7.90;;;4.73;;
60336;SDS011;46978;50.288;28.624;2023-01-04T06:47:25;9.81;;;4.73;;
60336;SDS011;46978;50.288;28.624;2023-01-04T06:48:26;9.09;;;4.66;;
60336;SDS011;46978;50.288;28.624;2023-01-04T06:49:28;8.85;;;5.09;;
60336;SDS011;46978;50.288;28.624;2023-01-04T06:50:31;8.39;;;4.93;;
60336;SDS011;46978;50.288;28.624;2023-01-04T06:51:32;7.44;;;4.64;;
60336;SDS011;46978;50.288;28.624;2023-01-04T06:52:34;7.92;;;4.66;;
60336;SDS011;46978;50.288;28.624;2023-01-04T06:53:36;8.08;;;5.03;;
60336;SDS011;46978;50.288;28.624;2023-01-04T06:55:59;9.75;;;5.02;;
60336;SDS011;46978;50.288;28.624;2023-01-04T06:57:01;8.57;;;4.75;;
60336;SDS011;46978;50.288;28.624;2023-01-04T06:58:03;8.41;;;4.80;;